createdAt,value
2023-09-18T00:01:29.969Z,32.90
2023-09-18T00:03:59.123Z,32.90
2023-09-18T00:06:26.844Z,32.90
2023-09-18T00:08:55.020Z,32.90
2023-09-18T00:11:22.974Z,32.90
2023-09-18T00:13:50.643Z,32.90
2023-09-18T00:16:18.965Z,32.90
2023-09-18T00:18:48.001Z,32.90
2023-09-18T00:21:15.829Z,32.90
2023-09-18T00:23:43.469Z,32.90
2023-09-18T00:26:11.239Z,32.90
2023-09-18T00:28:39.401Z,32.90
2023-09-18T00:31:07.109Z,32.80
2023-09-18T00:33:34.899Z,32.90
2023-09-18T00:36:04.222Z,32.80
2023-09-18T00:38:31.966Z,32.80
2023-09-18T00:40:59.654Z,32.80
2023-09-18T00:43:27.541Z,32.80
2023-09-18T00:45:55.354Z,32.80
2023-09-18T00:48:23.407Z,32.80
2023-09-18T00:50:51.170Z,32.80
2023-09-18T00:53:23.697Z,32.80
2023-09-18T00:55:54.429Z,32.80
2023-09-18T00:58:22.369Z,32.80
2023-09-18T01:00:52.212Z,32.80
2023-09-18T01:03:21.066Z,32.80
2023-09-18T01:05:48.978Z,32.80
2023-09-18T01:08:16.882Z,32.80
2023-09-18T01:10:51.147Z,32.80
2023-09-18T01:13:24.020Z,32.80
2023-09-18T01:15:56.741Z,32.80
2023-09-18T01:18:24.560Z,32.80
2023-09-18T01:20:52.331Z,32.70
2023-09-18T01:23:21.421Z,32.80
2023-09-18T01:25:49.254Z,32.70
2023-09-18T01:28:17.384Z,32.70
2023-09-18T01:30:45.939Z,32.80
2023-09-18T01:33:14.544Z,32.70
2023-09-18T01:35:43.818Z,32.70
2023-09-18T01:38:12.411Z,32.70
2023-09-18T01:40:42.383Z,32.70
2023-09-18T01:43:10.994Z,32.70
2023-09-18T01:45:39.379Z,32.70
2023-09-18T01:48:08.297Z,32.70
2023-09-18T01:50:36.311Z,32.70
2023-09-18T01:53:04.738Z,32.70
2023-09-18T01:55:33.635Z,32.70
2023-09-18T01:58:03.960Z,32.70
2023-09-18T02:00:32.163Z,32.70
2023-09-18T02:03:02.359Z,32.70
2023-09-18T02:05:33.822Z,32.70
2023-09-18T02:08:01.901Z,32.70
2023-09-18T02:10:29.918Z,32.70
2023-09-18T02:12:57.605Z,32.70
2023-09-18T02:15:26.621Z,32.70
2023-09-18T02:17:54.947Z,32.70
2023-09-18T02:20:22.667Z,32.70
2023-09-18T02:22:50.465Z,32.70
2023-09-18T02:25:18.408Z,32.70
2023-09-18T02:27:46.063Z,32.60
2023-09-18T02:30:14.431Z,32.60
2023-09-18T02:32:43.668Z,32.60
2023-09-18T02:35:12.577Z,32.60
2023-09-18T02:37:40.360Z,32.60
2023-09-18T02:40:09.272Z,32.60
2023-09-18T02:42:36.975Z,32.60
2023-09-18T02:45:05.304Z,32.60
2023-09-18T02:47:33.408Z,32.60
2023-09-18T02:50:02.489Z,32.60
2023-09-18T02:52:30.195Z,32.60
2023-09-18T02:54:57.917Z,32.60
2023-09-18T02:57:25.586Z,32.60
2023-09-18T02:59:53.318Z,32.60
2023-09-18T03:02:21.062Z,32.60
2023-09-18T03:04:49.213Z,32.60
2023-09-18T03:07:18.197Z,32.60
2023-09-18T03:09:45.978Z,32.60
2023-09-18T03:12:13.685Z,32.60
2023-09-18T03:14:41.435Z,32.60
2023-09-18T03:17:09.916Z,32.60
2023-09-18T03:19:37.692Z,32.60
2023-09-18T03:22:06.024Z,32.50
2023-09-18T03:24:35.343Z,32.50
2023-09-18T03:27:03.488Z,32.50
2023-09-18T03:29:31.273Z,32.50
2023-09-18T03:32:00.009Z,32.50
2023-09-18T03:34:28.260Z,32.50
2023-09-18T03:36:56.017Z,32.50
2023-09-18T03:39:23.717Z,32.50
2023-09-18T03:41:52.875Z,32.50
2023-09-18T03:44:20.552Z,32.50
2023-09-18T03:46:48.405Z,32.50
2023-09-18T03:49:16.087Z,32.50
2023-09-18T03:51:44.452Z,32.50
2023-09-18T03:54:12.144Z,32.50
2023-09-18T03:56:39.935Z,32.50
2023-09-18T03:59:09.041Z,32.50
2023-09-18T04:01:37.556Z,32.50
2023-09-18T04:04:05.997Z,32.50
2023-09-18T04:06:39.787Z,32.50
2023-09-18T04:09:07.468Z,32.50
2023-09-18T04:11:35.429Z,32.50
2023-09-18T04:14:04.266Z,32.50
2023-09-18T04:16:36.750Z,32.50
2023-09-18T04:19:04.663Z,32.50
2023-09-18T04:21:32.468Z,32.50
2023-09-18T04:24:00.242Z,32.50
2023-09-18T04:26:30.726Z,32.50
2023-09-18T04:28:58.947Z,32.40
2023-09-18T04:31:26.717Z,32.40
2023-09-18T04:33:55.848Z,32.40
2023-09-18T04:36:23.593Z,32.40
2023-09-18T04:38:51.726Z,32.40
2023-09-18T04:41:19.581Z,32.40
2023-09-18T04:43:47.376Z,32.40
2023-09-18T04:46:15.059Z,32.40
2023-09-18T04:48:42.812Z,32.40
2023-09-18T04:51:11.857Z,32.40
2023-09-18T04:53:39.645Z,32.40
2023-09-18T04:56:07.349Z,32.40
2023-09-18T04:58:35.683Z,32.40
2023-09-18T05:01:03.638Z,32.40
2023-09-18T05:03:31.548Z,32.40
2023-09-18T05:05:59.883Z,32.40
2023-09-18T05:08:29.196Z,32.40
2023-09-18T05:10:58.610Z,32.40
2023-09-18T05:13:26.389Z,32.40
2023-09-18T05:15:54.231Z,32.40
2023-09-18T05:18:23.091Z,32.40
2023-09-18T05:20:51.062Z,32.40
2023-09-18T05:23:19.810Z,32.40
2023-09-18T05:25:48.978Z,32.40
2023-09-18T05:28:17.005Z,32.40
2023-09-18T05:30:45.907Z,32.40
2023-09-18T05:33:14.898Z,32.40
2023-09-18T05:35:43.994Z,32.40
2023-09-18T05:38:12.585Z,32.30
2023-09-18T05:40:40.377Z,32.40
2023-09-18T05:43:09.725Z,32.40
2023-09-18T05:45:37.738Z,32.30
2023-09-18T05:48:06.837Z,32.40
2023-09-18T05:50:36.092Z,32.40
2023-09-18T05:53:05.426Z,32.30
2023-09-18T05:55:33.724Z,32.30
2023-09-18T05:58:04.039Z,32.30
2023-09-18T06:00:33.853Z,32.30
2023-09-18T06:03:02.183Z,32.30
2023-09-18T06:05:32.827Z,32.30
2023-09-18T06:08:01.117Z,32.30
2023-09-18T06:10:28.911Z,32.30
2023-09-18T06:12:56.704Z,32.30
2023-09-18T06:15:24.797Z,32.30
2023-09-18T06:17:54.168Z,32.30
2023-09-18T06:20:23.313Z,32.30
2023-09-18T06:22:51.113Z,32.30
2023-09-18T06:25:18.943Z,32.30
2023-09-18T06:27:47.386Z,32.30
2023-09-18T06:30:15.617Z,32.30
2023-09-18T06:32:43.689Z,32.30
2023-09-18T06:35:13.151Z,32.30
2023-09-18T06:37:40.960Z,32.30
2023-09-18T06:40:10.407Z,32.30
2023-09-18T06:42:38.967Z,32.30
2023-09-18T06:45:08.278Z,32.30
2023-09-18T06:47:36.929Z,32.30
2023-09-18T06:50:07.093Z,32.30
2023-09-18T06:52:36.355Z,32.30
2023-09-18T06:55:04.180Z,32.30
2023-09-18T06:57:31.953Z,32.30
2023-09-18T06:59:59.805Z,32.30
2023-09-18T07:02:28.449Z,32.30
2023-09-18T07:04:56.442Z,32.30
2023-09-18T07:07:26.517Z,32.30
2023-09-18T07:12:27.204Z,32.40
2023-09-18T07:14:55.021Z,32.40
2023-09-18T07:17:23.076Z,32.40
2023-09-18T07:19:50.881Z,32.40
2023-09-18T07:22:18.614Z,32.40
2023-09-18T07:24:47.239Z,32.40
2023-09-18T07:27:16.892Z,32.40
2023-09-18T07:29:44.604Z,32.40
2023-09-18T07:32:14.912Z,32.40
2023-09-18T07:34:48.364Z,32.40
2023-09-18T07:37:17.048Z,32.50
2023-09-18T07:39:44.770Z,32.50
2023-09-18T07:42:12.599Z,32.50
2023-09-18T07:44:41.780Z,32.50
2023-09-18T07:47:09.487Z,32.50
2023-09-18T07:49:37.144Z,32.50
2023-09-18T07:52:05.292Z,32.50
2023-09-18T07:54:33.235Z,32.50
2023-09-18T07:57:02.568Z,32.50
2023-09-18T07:59:30.397Z,32.50
2023-09-18T08:01:59.748Z,32.60
2023-09-18T08:04:27.700Z,32.60
2023-09-18T08:06:55.506Z,32.60
2023-09-18T08:09:23.418Z,32.60
2023-09-18T08:11:51.118Z,32.60
2023-09-18T08:14:19.295Z,32.60
2023-09-18T08:16:47.349Z,32.60
2023-09-18T08:19:20.175Z,32.60
2023-09-18T08:21:47.989Z,32.60
2023-09-18T08:24:15.664Z,32.60
2023-09-18T08:26:43.569Z,32.60
2023-09-18T08:29:11.486Z,32.60
2023-09-18T08:31:39.291Z,32.70
2023-09-18T08:34:07.211Z,32.70
2023-09-18T08:36:36.330Z,32.70
2023-09-18T08:39:06.939Z,32.70
2023-09-18T08:41:35.575Z,32.70
2023-09-18T08:44:05.341Z,32.70
2023-09-18T08:46:35.247Z,32.70
2023-09-18T08:49:03.510Z,32.70
2023-09-18T08:51:32.011Z,32.70
2023-09-18T08:54:01.351Z,32.70
2023-09-18T08:56:30.249Z,32.70
2023-09-18T08:58:59.244Z,32.80
2023-09-18T09:01:27.301Z,32.80
2023-09-18T09:03:55.036Z,32.80
2023-09-18T09:06:22.786Z,32.80
2023-09-18T09:08:52.623Z,32.80
2023-09-18T09:11:22.064Z,32.80
2023-09-18T09:13:49.813Z,32.80
2023-09-18T09:16:20.089Z,32.80
2023-09-18T09:18:51.288Z,32.80
2023-09-18T09:21:19.718Z,32.80
2023-09-18T09:23:51.364Z,32.80
2023-09-18T09:26:20.659Z,32.80
2023-09-18T09:28:51.146Z,32.80
2023-09-18T09:31:29.944Z,32.80
2023-09-18T09:33:58.846Z,32.80
2023-09-18T09:36:26.630Z,32.80
2023-09-18T09:38:58.247Z,32.80
2023-09-18T09:41:29.079Z,32.80
2023-09-18T09:43:59.445Z,32.80
2023-09-18T09:46:28.763Z,32.80
2023-09-18T09:49:02.382Z,32.80
2023-09-18T09:51:30.591Z,32.90
2023-09-18T09:54:00.203Z,32.90
2023-09-18T09:56:45.689Z,32.90
2023-09-18T09:59:16.562Z,32.90
2023-09-18T10:01:45.809Z,32.90
2023-09-18T10:04:18.481Z,32.90
2023-09-18T10:06:51.858Z,32.90
2023-09-18T10:09:22.743Z,32.90
2023-09-18T10:11:54.284Z,32.90
2023-09-18T10:14:40.315Z,32.90
2023-09-18T10:17:17.506Z,32.90
2023-09-18T10:19:52.748Z,32.90
2023-09-18T10:22:27.617Z,32.90
2023-09-18T10:25:06.005Z,33.00
2023-09-18T10:27:35.071Z,32.90
2023-09-18T10:30:06.148Z,33.00
2023-09-18T10:32:34.957Z,33.00
2023-09-18T10:35:03.673Z,33.00
2023-09-18T10:37:33.238Z,33.00
2023-09-18T10:40:02.312Z,33.00
2023-09-18T10:42:31.630Z,33.00
2023-09-18T10:44:59.682Z,33.00
2023-09-18T10:47:29.999Z,33.00
2023-09-18T10:49:57.805Z,33.00
2023-09-18T10:52:25.874Z,33.00
2023-09-18T10:54:53.773Z,33.00
2023-09-18T10:57:24.441Z,33.00
2023-09-18T10:59:56.467Z,33.00
2023-09-18T11:02:25.664Z,33.00
2023-09-18T11:04:56.095Z,33.00
2023-09-18T11:07:25.762Z,33.00
2023-09-18T11:09:53.579Z,33.00
2023-09-18T11:12:21.299Z,33.00
2023-09-18T11:14:53.395Z,33.00
2023-09-18T11:17:32.568Z,33.00
2023-09-18T11:20:07.527Z,33.00
2023-09-18T11:22:35.366Z,33.00
2023-09-18T11:25:32.311Z,33.00
2023-09-18T11:28:00.085Z,33.00
2023-09-18T11:30:27.934Z,33.00
2023-09-18T11:32:57.022Z,33.00
2023-09-18T11:35:27.242Z,33.00
2023-09-18T11:38:06.647Z,33.00
2023-09-18T11:40:39.421Z,33.00
2023-09-18T11:43:27.699Z,33.00
2023-09-18T11:46:05.414Z,33.00
2023-09-18T11:48:35.617Z,32.90
2023-09-18T11:51:06.974Z,32.90
2023-09-18T11:53:39.905Z,32.90
2023-09-18T11:56:16.036Z,32.90
2023-09-18T11:58:47.726Z,32.90
2023-09-18T12:01:17.620Z,32.90
2023-09-18T12:03:46.373Z,32.90
2023-09-18T12:06:15.338Z,32.90
2023-09-18T12:08:43.812Z,32.80
2023-09-18T12:11:20.409Z,32.80
2023-09-18T12:13:49.774Z,32.80
2023-09-18T12:16:19.903Z,32.80
2023-09-18T12:18:49.066Z,32.70
2023-09-18T12:21:18.784Z,32.70
2023-09-18T12:23:47.952Z,32.70
2023-09-18T12:26:17.504Z,32.70
2023-09-18T12:28:46.865Z,32.70
2023-09-18T12:31:15.576Z,32.70
2023-09-18T12:33:48.336Z,32.60
2023-09-18T12:36:21.263Z,32.60
2023-09-18T12:38:58.203Z,32.60
2023-09-18T12:44:00.711Z,32.60
2023-09-18T12:46:29.682Z,32.60
2023-09-18T12:48:59.175Z,32.60
2023-09-18T12:51:32.956Z,32.60
2023-09-18T12:54:08.474Z,32.60
2023-09-18T12:56:42.913Z,32.60
2023-09-18T12:59:16.777Z,32.60
2023-09-18T13:01:49.534Z,32.60
2023-09-18T13:04:19.069Z,32.60
2023-09-18T13:06:47.109Z,32.60
2023-09-18T13:09:18.815Z,32.60
2023-09-18T13:11:56.530Z,32.60
2023-09-18T13:14:24.527Z,32.60
2023-09-18T13:16:52.753Z,32.60
2023-09-18T13:19:22.658Z,32.60
2023-09-18T13:21:54.197Z,32.60
2023-09-18T13:24:28.809Z,32.60
2023-09-18T13:26:57.712Z,32.60
2023-09-18T13:29:26.365Z,32.60
2023-09-18T13:31:54.509Z,32.60
2023-09-18T13:34:24.168Z,32.60
2023-09-18T13:36:52.210Z,32.60
2023-09-18T13:39:20.550Z,32.60
2023-09-18T13:41:48.516Z,32.50
2023-09-18T13:44:22.420Z,32.60
2023-09-18T13:46:50.476Z,32.50
2023-09-18T13:49:18.832Z,32.60
2023-09-18T13:51:48.467Z,32.60
2023-09-18T13:54:16.634Z,32.60
2023-09-18T13:56:44.989Z,32.60
2023-09-18T13:59:13.019Z,32.60
2023-09-18T14:01:40.814Z,32.60
2023-09-18T14:04:08.604Z,32.60
2023-09-18T14:06:36.780Z,32.60
2023-09-18T14:09:07.341Z,32.60
2023-09-18T14:11:39.106Z,32.60
2023-09-18T14:14:08.013Z,32.60
2023-09-18T14:16:35.816Z,32.60
2023-09-18T14:19:03.713Z,32.60
2023-09-18T14:21:31.941Z,32.60
2023-09-18T14:24:00.069Z,32.60
2023-09-18T14:26:29.371Z,32.60
2023-09-18T14:28:57.218Z,32.50
2023-09-18T14:31:25.419Z,32.60
2023-09-18T14:33:53.316Z,32.50
2023-09-18T14:36:21.351Z,32.60
2023-09-18T14:38:49.461Z,32.60
2023-09-18T14:41:19.339Z,32.50
2023-09-18T14:43:48.743Z,32.60
2023-09-18T14:46:16.542Z,32.60
2023-09-18T14:48:44.625Z,32.60
2023-09-18T14:51:13.176Z,32.60
2023-09-18T14:53:41.811Z,32.60
2023-09-18T14:56:10.079Z,32.50
2023-09-18T14:58:38.155Z,32.50
2023-09-18T15:01:07.937Z,32.50
2023-09-18T15:03:36.487Z,32.60
2023-09-18T15:06:04.743Z,32.60
2023-09-18T15:08:32.936Z,32.60
2023-09-18T15:11:00.722Z,32.60
2023-09-18T15:13:30.874Z,32.50
2023-09-18T15:15:58.792Z,32.50
2023-09-18T15:18:28.673Z,32.60
2023-09-18T15:20:56.808Z,32.50
2023-09-18T15:23:25.354Z,32.60
2023-09-18T15:25:54.763Z,32.50
2023-09-18T15:28:23.114Z,32.60
2023-09-18T15:30:53.169Z,32.50
2023-09-18T15:33:23.649Z,32.60
2023-09-18T15:36:01.415Z,32.50
2023-09-18T15:38:31.254Z,32.50
2023-09-18T15:40:59.326Z,32.60
2023-09-18T15:43:27.494Z,32.60
2023-09-18T15:45:55.703Z,32.50
2023-09-18T15:48:23.790Z,32.50
2023-09-18T15:50:53.260Z,32.50
2023-09-18T15:53:21.402Z,32.50
2023-09-18T15:55:49.078Z,32.60
2023-09-18T15:58:18.131Z,32.50
2023-09-18T16:00:45.876Z,32.60
2023-09-18T16:03:13.641Z,32.60
2023-09-18T16:05:42.284Z,32.50
2023-09-18T16:08:11.608Z,32.50
2023-09-18T16:10:39.377Z,32.50
2023-09-18T16:13:07.384Z,32.60
2023-09-18T16:15:35.291Z,32.60
2023-09-18T16:18:03.101Z,32.50
2023-09-18T16:20:30.850Z,32.60
2023-09-18T16:22:58.535Z,32.60
2023-09-18T16:25:27.860Z,32.60
2023-09-18T16:27:55.945Z,32.60
2023-09-18T16:30:23.996Z,32.60
2023-09-18T16:32:51.826Z,32.60
2023-09-18T16:35:19.531Z,32.60
2023-09-18T16:37:47.429Z,32.60
2023-09-18T16:40:15.468Z,32.60
2023-09-18T16:42:46.129Z,32.60
2023-09-18T16:45:13.775Z,32.60
2023-09-18T16:47:41.910Z,32.60
2023-09-18T16:50:13.483Z,32.60
2023-09-18T16:52:44.730Z,32.60
2023-09-18T16:55:12.686Z,32.60
2023-09-18T16:57:40.356Z,32.60
2023-09-18T17:00:11.151Z,32.60
2023-09-18T17:02:38.967Z,32.60
2023-09-18T17:05:07.760Z,32.60
2023-09-18T17:07:35.515Z,32.60
2023-09-18T17:10:05.409Z,32.60
2023-09-18T17:12:33.140Z,32.60
2023-09-18T17:15:01.153Z,32.60
2023-09-18T17:17:32.983Z,32.70
2023-09-18T17:20:00.917Z,32.60
2023-09-18T17:22:28.635Z,32.60
2023-09-18T17:24:56.283Z,32.70
2023-09-18T17:27:23.938Z,32.70
2023-09-18T17:29:51.649Z,32.70
2023-09-18T17:32:19.284Z,32.70
2023-09-18T17:34:48.432Z,32.70
2023-09-18T17:37:16.055Z,32.70
2023-09-18T17:39:43.718Z,32.70
2023-09-18T17:42:11.346Z,32.70
2023-09-18T17:44:39.057Z,32.70
2023-09-18T17:47:07.021Z,32.70
2023-09-18T17:49:36.251Z,32.70
2023-09-18T17:52:09.452Z,32.70
2023-09-18T17:54:37.187Z,32.70
2023-09-18T17:57:06.813Z,32.70
2023-09-18T17:59:34.807Z,32.70
2023-09-18T18:02:04.541Z,32.70
2023-09-18T18:04:32.456Z,32.70
2023-09-18T18:07:00.900Z,32.70
2023-09-18T18:09:30.085Z,32.70
2023-09-18T18:11:57.970Z,32.70
2023-09-18T18:14:28.928Z,32.70
2023-09-18T18:16:57.874Z,32.70
2023-09-18T18:19:25.488Z,32.70
2023-09-18T18:21:53.134Z,32.70
2023-09-18T18:24:22.138Z,32.70
2023-09-18T18:26:53.423Z,32.70
2023-09-18T18:29:21.769Z,32.70
2023-09-18T18:31:50.940Z,32.70
2023-09-18T18:34:18.653Z,32.70
2023-09-18T18:36:46.652Z,32.70
2023-09-18T18:39:15.213Z,32.70
2023-09-18T18:41:42.881Z,32.70
2023-09-18T18:44:11.859Z,32.70
2023-09-18T18:46:39.519Z,32.70
2023-09-18T18:49:07.213Z,32.70
2023-09-18T18:51:34.928Z,32.70
2023-09-18T18:54:04.610Z,32.70
2023-09-18T18:56:32.597Z,32.70
2023-09-18T18:59:00.309Z,32.70
2023-09-18T19:01:30.541Z,32.70
2023-09-18T19:03:58.496Z,32.70
2023-09-18T19:06:26.311Z,32.70
2023-09-18T19:08:54.058Z,32.70
2023-09-18T19:11:21.779Z,32.70
2023-09-18T19:13:49.653Z,32.70
2023-09-18T19:16:17.482Z,32.70
2023-09-18T19:18:46.566Z,32.70
2023-09-18T19:21:14.373Z,32.70
2023-09-18T19:23:43.891Z,32.70
2023-09-18T19:26:12.542Z,32.70
2023-09-18T19:28:40.562Z,32.70
2023-09-18T19:31:09.617Z,32.70
2023-09-18T19:33:40.277Z,32.70
2023-09-18T19:36:14.839Z,32.70
2023-09-18T19:38:44.865Z,32.70
2023-09-18T19:41:15.464Z,32.70
2023-09-18T19:43:43.752Z,32.70
2023-09-18T19:46:12.767Z,32.70
2023-09-18T19:48:41.043Z,32.70
2023-09-18T19:51:10.198Z,32.70
2023-09-18T19:53:37.886Z,32.70
2023-09-18T19:56:05.830Z,32.70
2023-09-18T19:58:34.464Z,32.70
2023-09-18T20:01:02.238Z,32.70
2023-09-18T20:03:29.968Z,32.70
2023-09-18T20:05:57.708Z,32.70
2023-09-18T20:08:26.776Z,32.70
2023-09-18T20:10:55.273Z,32.70
2023-09-18T20:13:23.217Z,32.70
2023-09-18T20:15:50.990Z,32.70
2023-09-18T20:18:18.696Z,32.70
2023-09-18T20:20:46.564Z,32.70
2023-09-18T20:23:14.268Z,32.60
2023-09-18T20:25:43.638Z,32.70
2023-09-18T20:28:11.956Z,32.70
2023-09-18T20:30:39.808Z,32.70
2023-09-18T20:33:07.827Z,32.70
2023-09-18T20:35:35.562Z,32.60
2023-09-18T20:38:14.506Z,32.70
2023-09-18T20:40:44.820Z,32.70
2023-09-18T20:43:12.563Z,32.60
2023-09-18T20:45:40.986Z,32.70
2023-09-18T20:48:09.355Z,32.60
2023-09-18T20:50:37.213Z,32.70
2023-09-18T20:53:06.690Z,32.70
2023-09-18T20:55:35.197Z,32.60
2023-09-18T20:58:04.813Z,32.60
2023-09-18T21:00:33.440Z,32.70
2023-09-18T21:03:01.271Z,32.60
2023-09-18T21:05:29.186Z,32.70
2023-09-18T21:07:56.976Z,32.60
2023-09-18T21:10:33.454Z,32.60
2023-09-18T21:13:01.728Z,32.60
2023-09-18T21:15:30.864Z,32.60
2023-09-18T21:17:58.546Z,32.60
2023-09-18T21:20:26.517Z,32.60
2023-09-18T21:22:54.425Z,32.60
2023-09-18T21:25:22.128Z,32.60
2023-09-18T21:27:49.730Z,32.60
2023-09-18T21:30:18.185Z,32.60
2023-09-18T21:32:48.338Z,32.60
2023-09-18T21:35:16.336Z,32.60
2023-09-18T21:37:45.284Z,32.60
2023-09-18T21:40:13.791Z,32.60
2023-09-18T21:45:12.053Z,32.60
2023-09-18T21:47:41.038Z,32.60
2023-09-18T21:50:11.723Z,32.60
2023-09-18T21:52:39.389Z,32.60
2023-09-18T21:55:08.254Z,32.60
2023-09-18T21:57:35.866Z,32.60
2023-09-18T22:00:14.528Z,32.60
2023-09-18T22:02:42.529Z,32.60
2023-09-18T22:05:12.398Z,32.60
2023-09-18T22:07:40.107Z,32.60
2023-09-18T22:10:09.102Z,32.60
2023-09-18T22:12:36.770Z,32.50
2023-09-18T22:15:14.620Z,32.50
2023-09-18T22:17:43.018Z,32.50
2023-09-18T22:20:15.804Z,32.50
2023-09-18T22:22:43.517Z,32.50
2023-09-18T22:25:11.859Z,32.50
2023-09-18T22:27:40.210Z,32.50
2023-09-18T22:30:09.188Z,32.50
2023-09-18T22:32:38.089Z,32.50
2023-09-18T22:35:06.837Z,32.50
2023-09-18T22:37:35.840Z,32.50
2023-09-18T22:40:07.902Z,32.50
2023-09-18T22:43:15.992Z,32.50
2023-09-18T22:46:22.295Z,32.40
2023-09-18T22:49:27.617Z,32.40
2023-09-18T22:52:32.950Z,32.40
2023-09-18T22:55:01.961Z,32.40
2023-09-18T22:57:31.875Z,32.40
2023-09-18T23:00:01.173Z,32.40
2023-09-18T23:02:29.909Z,32.40
2023-09-18T23:04:59.674Z,32.40
2023-09-18T23:07:27.561Z,32.40
2023-09-18T23:09:56.958Z,32.40
2023-09-18T23:12:29.521Z,32.40
2023-09-18T23:14:57.268Z,32.30
2023-09-18T23:17:27.282Z,32.40
2023-09-18T23:19:55.051Z,32.40
2023-09-18T23:22:24.351Z,32.30
2023-09-18T23:24:53.589Z,32.30
2023-09-18T23:27:23.106Z,32.30
2023-09-18T23:29:53.890Z,32.30
2023-09-18T23:32:24.422Z,32.30
2023-09-18T23:35:00.713Z,32.30
2023-09-18T23:37:30.008Z,32.30
2023-09-18T23:40:07.342Z,32.30
2023-09-18T23:42:35.398Z,32.30
2023-09-18T23:45:13.082Z,32.30
2023-09-18T23:47:40.884Z,32.30
2023-09-18T23:50:11.934Z,32.30
2023-09-18T23:52:42.720Z,32.30
2023-09-18T23:55:12.111Z,32.30
2023-09-18T23:57:40.226Z,32.30
